Dundee, Iowa
Current Conditions -  °F | °C
As of 10:35 PM on Friday 19 Dec 2014 (Local Time) from KIIB Reporting Station
Overcast Overcast  
Wind Chill: 23°   Ceiling: 1900
Heat Index: 30°   Visibility: 10mi
Dew Point: 25°   Wind: 8mph
Humidity: 80%   Direction: 170°S
Pressure: 30.22"   Gusts: NA
Location:  42.58°N, 91.55°W
Report Text: KIIB 200435Z AUTO 17007KT 10SM BKN019 OVC026 M01/M04 A3022 RMK AO2
Loading
Personal Weather Stations






























Interactive Weather Map New forecast layout! Learn more

10-Day Weather Forecast

Advertisements
Track Severe Weather on mobile